Rowena, South Dakota
Current Conditions -  °F | °C
As of 5:56 AM on Friday 19 Dec 2014 (Local Time) from KFSD Reporting Station
Overcast Overcast  
Wind Chill: 19°   Ceiling: 1000
Heat Index: 28°   Visibility: 8mi
Dew Point: 25°   Wind: 9mph
Humidity: 88%   Direction: 190°S
Pressure: 30.15"   Gusts: NA
Location:  43.52°N, 96.56°W
Report Text: KFSD 191156Z 19008KT 8SM OVC010 M02/M04 A3015 RMK AO2 SLP228 4/002 T10221039 11017 21028 55006
Loading
Personal Weather Stations






























Interactive Weather Map New forecast layout! Learn more

10-Day Weather Forecast

Advertisements
Track Severe Weather on mobile